East Olympia, Washington
Current Conditions -  °F | °C
As of 8:14 PM on Saturday 20 Dec 2014 (Local Time) from KOLM Reporting Station
Light Rain Light Rain  
Wind Chill: 55°   Ceiling: 3200
Heat Index: 55°   Visibility: 5mi
Dew Point: 53°   Wind: 10mph
Humidity: 93%   Direction: 230°SW
Pressure: 29.53"   Gusts: NA
Location:  46.97°N, 122.84°W
Report Text: KOLM 210414Z AUTO 23009KT 5SM -RA BR FEW023 BKN032 OVC055 13/12 A2953 RMK AO2 P0002 T01280117
Loading
Personal Weather Stations






























Interactive Weather Map New forecast layout! Learn more

10-Day Weather Forecast

Advertisements
Track Severe Weather on mobile